Terminal Aerodrome Forecast
Issued by NWS Billings, MT

Home | Current Version | Previous Version | Text Only | Print | Product List | Glossary On
Versions: 1 2 3 4 5 6 7 8 9 10 11 12 13 14 15 16 17 18 19 20 21 22 23 24 25 26 27 28
000
FTUS45 KBYZ 241735
TAFMLS
TAF
KMLS 241735Z 2418/2518 31015G20KT 2SM RA BKN010
     FM242000 31020G35KT 4SM -RA BKN010
     FM250300 31015KT P6SM VCSH SCT070 BKN150
     FM250600 30012KT P6SM BKN150=

USA.gov is the U.S. government's official web portal to all federal, state and local government web resources and services.